Time;durP1;ratioP1;P1;durP2;ratioP2;P2;SDS_P1;SDS_P2;PMS_P1;PMS_P2;Temp;Humidity;BMP_temperature;BMP_pressure;BME280_temperature;BME280_humidity;BME280_pressure;Samples;Min_cycle;Max_cycle;Signal;HPM_P1;HPM_P2
2022/04/29 00:01:22;;;;;;;26.55;11.07;;;3.90;99.90;;;;;;5004006;28;20034;-87
2022/04/29 00:03:48;;;;;;;28.98;11.75;;;3.90;99.90;;;;;;5005380;28;20075;-87
2022/04/29 00:06:15;;;;;;;18.45;10.50;;;4.00;99.90;;;;;;4995870;28;20046;-88
2022/04/29 00:08:41;;;;;;;31.08;13.63;;;3.90;99.90;;;;;;4995325;28;20053;-88
2022/04/29 00:11:06;;;;;;;22.85;10.82;;;3.90;99.90;;;;;;5004780;28;20457;-87
2022/04/29 00:13:32;;;;;;;26.83;10.75;;;3.90;99.90;;;;;;4987876;28;20123;-87
2022/04/29 00:15:59;;;;;;;20.35;10.20;;;3.90;99.90;;;;;;5003814;28;20077;-87
2022/04/29 00:18:25;;;;;;;20.65;9.85;;;4.30;99.90;;;;;;4998537;28;20082;-86
2022/04/29 00:20:51;;;;;;;36.08;11.82;;;3.80;99.90;;;;;;5003955;28;20077;-88
2022/04/29 00:23:18;;;;;;;22.30;10.32;;;3.90;99.90;;;;;;5003127;28;20053;-87
2022/04/29 00:25:44;;;;;;;20.35;9.80;;;3.70;99.90;;;;;;4987136;28;20046;-87
2022/04/29 00:28:10;;;;;;;32.90;10.68;;;4.80;99.90;;;;;;4987350;28;20070;-86
2022/04/29 00:30:35;;;;;;;28.77;10.07;;;3.60;99.90;;;;;;4987659;28;20050;-87
2022/04/29 00:33:01;;;;;;;23.15;9.93;;;3.50;99.90;;;;;;4987351;28;20476;-88
2022/04/29 00:35:28;;;;;;;28.20;10.80;;;3.50;99.90;;;;;;5003932;28;20066;-87
2022/04/29 00:37:55;;;;;;;22.58;11.73;;;3.60;99.90;;;;;;5003464;28;20046;-87
2022/04/29 00:40:23;;;;;;;25.15;11.32;;;3.50;99.90;;;;;;5003663;28;20084;-86
2022/04/29 00:42:48;;;;;;;31.48;10.27;;;3.40;99.90;;;;;;4986179;28;20046;-87
2022/04/29 00:45:16;;;;;;;22.95;10.80;;;3.40;99.90;;;;;;5003219;28;20049;-87
2022/04/29 00:47:42;;;;;;;24.35;10.23;;;3.30;99.90;;;;;;4987138;28;20057;-87
2022/04/29 00:50:10;;;;;;;28.80;11.02;;;3.30;99.90;;;;;;5002890;28;20046;-88
2022/04/29 00:52:40;;;;;;;18.85;10.10;;;3.30;99.90;;;;;;4987497;28;20126;-87
2022/04/29 00:55:09;;;;;;;30.35;9.85;;;3.20;99.90;;;;;;5003851;28;20125;-87
2022/04/29 00:57:48;;;;;;;30.48;11.40;;;3.20;99.90;;;;;;4986897;28;20161;-87
2022/04/29 01:00:15;;;;;;;24.17;10.38;;;3.20;99.90;;;;;;5003830;28;20073;-87
2022/04/29 01:02:44;;;;;;;24.95;10.77;;;3.30;99.90;;;;;;5006592;28;20050;-87
2022/04/29 01:05:15;;;;;;;22.15;10.85;;;3.20;99.90;;;;;;5007780;28;20447;-87
2022/04/29 01:07:43;;;;;;;28.25;10.80;;;3.10;99.90;;;;;;4975253;28;20100;-87
2022/04/29 01:10:12;;;;;;;25.45;12.20;;;2.90;99.90;;;;;;4991276;28;20034;-87
2022/04/29 01:12:44;;;;;;;27.13;10.82;;;2.90;99.90;;;;;;4990461;28;20111;-88
2022/04/29 01:15:17;;;;;;;27.98;11.10;;;2.90;99.90;;;;;;5006694;28;20057;-87
2022/04/29 01:17:45;;;;;;;27.25;10.98;;;2.80;99.90;;;;;;4990676;28;20046;-87
2022/04/29 01:20:14;;;;;;;24.38;10.95;;;2.70;99.90;;;;;;4991024;28;20046;-87
2022/04/29 01:22:40;;;;;;;26.05;10.73;;;2.70;99.90;;;;;;5006573;28;20046;-88
2022/04/29 01:25:06;;;;;;;28.75;10.82;;;2.60;99.90;;;;;;4995027;28;20081;-87
2022/04/29 01:27:32;;;;;;;30.15;12.35;;;2.60;99.90;;;;;;4987118;28;20046;-88
2022/04/29 01:30:10;;;;;;;24.98;11.48;;;2.60;99.90;;;;;;4972386;28;20136;-88
2022/04/29 01:32:37;;;;;;;28.38;12.43;;;2.50;99.90;;;;;;4971355;28;20086;-88
2022/04/29 01:35:04;;;;;;;26.98;12.13;;;2.90;99.90;;;;;;4971013;28;20096;-88
2022/04/29 01:37:30;;;;;;;26.70;12.50;;;2.60;99.90;;;;;;4970901;28;20042;-86
2022/04/29 01:39:56;;;;;;;26.90;11.90;;;2.50;99.90;;;;;;4970208;28;20105;-87
2022/04/29 01:42:22;;;;;;;33.58;11.80;;;2.50;99.90;;;;;;4970490;28;20045;-87
2022/04/29 01:44:48;;;;;;;28.05;11.00;;;2.50;99.90;;;;;;4986132;28;20393;-87
2022/04/29 01:47:14;;;;;;;27.55;12.57;;;2.50;99.90;;;;;;4985492;28;20061;-86
2022/04/29 01:49:40;;;;;;;28.38;11.48;;;2.50;99.90;;;;;;4985864;28;20043;-87
2022/04/29 01:52:08;;;;;;;28.20;11.82;;;2.50;99.90;;;;;;4970492;28;20037;-86
2022/04/29 01:54:38;;;;;;;23.58;11.38;;;2.90;99.90;;;;;;4970493;28;20081;-87
2022/04/29 01:57:07;;;;;;;32.55;12.90;;;2.60;99.90;;;;;;4966481;28;20140;-87
2022/04/29 01:59:36;;;;;;;34.53;13.50;;;3.20;99.90;;;;;;4982599;28;20043;-87
2022/04/29 02:02:03;;;;;;;24.45;11.70;;;2.80;99.90;;;;;;4965952;28;20049;-88
2022/04/29 02:04:29;;;;;;;27.05;12.15;;;2.50;99.90;;;;;;4982646;28;20054;-88
2022/04/29 02:06:55;;;;;;;29.63;12.15;;;2.50;99.90;;;;;;4966668;28;20125;-87
2022/04/29 02:09:21;;;;;;;26.52;11.73;;;2.40;99.90;;;;;;4965768;28;20505;-87
2022/04/29 02:12:09;;;;;;;30.95;12.98;;;2.30;99.90;;;;;;4948431;28;20054;-87
2022/04/29 02:14:37;;;;;;;33.53;12.32;;;2.50;99.90;;;;;;4980309;28;20098;-88
2022/04/29 02:17:07;;;;;;;25.80;12.68;;;2.40;99.90;;;;;;4980556;28;20121;-87
2022/04/29 02:19:36;;;;;;;28.20;11.50;;;2.30;99.90;;;;;;4980800;28;20481;-86
2022/04/29 02:22:04;;;;;;;32.72;12.27;;;2.30;99.90;;;;;;4980514;28;20062;-87
2022/04/29 02:24:36;;;;;;;33.70;14.70;;;2.30;99.90;;;;;;4979981;28;20034;-87
2022/04/29 02:27:04;;;;;;;32.70;13.00;;;2.30;99.90;;;;;;4980087;28;20055;-88
2022/04/29 02:29:30;;;;;;;32.35;13.00;;;2.30;99.90;;;;;;4964326;28;20042;-87
2022/04/29 02:31:59;;;;;;;31.02;13.32;;;2.40;99.90;;;;;;4963371;28;20051;-86
2022/04/29 02:34:25;;;;;;;30.85;12.25;;;2.40;99.90;;;;;;4964759;28;20058;-87
2022/04/29 02:36:51;;;;;;;27.48;11.55;;;2.40;99.90;;;;;;4966604;28;20038;-87
2022/04/29 02:39:17;;;;;;;26.25;11.98;;;2.50;99.90;;;;;;4981409;28;20489;-88
2022/04/29 02:41:42;;;;;;;31.52;11.98;;;2.40;99.90;;;;;;4965825;28;20055;-88
2022/04/29 02:44:08;;;;;;;34.17;11.43;;;2.40;99.90;;;;;;4964072;28;20038;-88
2022/04/29 02:46:34;;;;;;;29.35;12.88;;;2.50;99.90;;;;;;4962084;28;20034;-88
2022/04/29 02:49:00;;;;;;;30.75;12.15;;;2.50;99.90;;;;;;4960934;28;20066;-88
2022/04/29 02:51:26;;;;;;;30.88;12.57;;;2.50;99.90;;;;;;4979368;28;20031;-88
2022/04/29 02:53:52;;;;;;;30.73;12.27;;;2.60;99.90;;;;;;4978385;28;20051;-88
2022/04/29 02:56:21;;;;;;;33.28;13.10;;;2.90;99.90;;;;;;4963109;28;20054;-88
2022/04/29 02:58:46;;;;;;;27.65;11.93;;;2.50;99.90;;;;;;4981017;28;20051;-87
2022/04/29 03:01:12;;;;;;;33.92;12.48;;;2.50;99.90;;;;;;4964610;28;20053;-88
2022/04/29 03:03:38;;;;;;;26.00;11.80;;;2.50;99.90;;;;;;4963735;28;20368;-88
2022/04/29 03:06:03;;;;;;;26.48;11.13;;;2.50;99.90;;;;;;4981148;28;20050;-88
2022/04/29 03:08:29;;;;;;;29.20;11.70;;;3.10;99.90;;;;;;4968198;28;20086;-88
2022/04/29 03:10:55;;;;;;;29.60;11.98;;;2.50;99.90;;;;;;4983366;28;20043;-87
2022/04/29 03:13:21;;;;;;;30.58;11.98;;;2.50;99.90;;;;;;4964547;28;20050;-87
2022/04/29 03:15:46;;;;;;;27.77;11.85;;;3.10;99.90;;;;;;4992359;28;20034;-86
2022/04/29 03:18:18;;;;;;;27.45;11.88;;;2.70;99.90;;;;;;5001438;28;20113;-85
2022/04/29 03:20:47;;;;;;;26.05;11.38;;;2.30;99.90;;;;;;5001661;28;20026;-84
2022/04/29 03:23:13;;;;;;;23.83;10.82;;;2.20;99.90;;;;;;5000962;28;20070;-85
2022/04/29 03:25:41;;;;;;;29.35;12.75;;;2.10;99.90;;;;;;5001019;28;20038;-84
2022/04/29 03:28:08;;;;;;;25.92;11.48;;;2.20;99.90;;;;;;5001165;28;20030;-85
2022/04/29 03:30:38;;;;;;;29.38;12.20;;;1.90;99.90;;;;;;5001490;28;20050;-86
2022/04/29 03:33:08;;;;;;;28.08;12.23;;;1.90;99.90;;;;;;5001224;28;20049;-85
2022/04/29 03:35:52;;;;;;;25.70;11.77;;;2.00;99.90;;;;;;5017323;28;20042;-85
2022/04/29 03:38:18;;;;;;;28.23;11.15;;;1.80;99.90;;;;;;5006782;28;20038;-88
2022/04/29 03:40:44;;;;;;;27.58;11.93;;;1.70;99.90;;;;;;4999895;28;20057;-88
2022/04/29 03:43:12;;;;;;;27.88;11.45;;;1.60;99.90;;;;;;4999912;28;20042;-87
2022/04/29 03:45:38;;;;;;;30.20;12.65;;;1.60;99.90;;;;;;4999147;28;20207;-88
2022/04/29 03:48:04;;;;;;;39.95;12.63;;;1.70;99.90;;;;;;4999363;28;20048;-87
2022/04/29 03:50:29;;;;;;;28.33;11.60;;;1.70;99.90;;;;;;4998764;28;20465;-88
2022/04/29 03:52:58;;;;;;;36.53;11.88;;;1.70;99.90;;;;;;4983515;28;20094;-88
2022/04/29 03:55:27;;;;;;;33.75;13.07;;;1.60;99.90;;;;;;4983888;28;20130;-89
2022/04/29 03:57:53;;;;;;;34.15;13.75;;;1.70;99.90;;;;;;4983111;28;20483;-88
2022/04/29 04:00:20;;;;;;;30.88;11.85;;;1.60;99.90;;;;;;4999633;28;20104;-88
2022/04/29 04:02:46;;;;;;;27.23;11.63;;;2.60;99.90;;;;;;5000426;28;20049;-88
2022/04/29 04:05:12;;;;;;;30.70;12.25;;;1.60;99.90;;;;;;4968415;28;20054;-88
2022/04/29 04:07:38;;;;;;;30.20;11.85;;;1.50;99.90;;;;;;4984504;28;20050;-88
2022/04/29 04:10:06;;;;;;;27.10;10.90;;;1.90;99.90;;;;;;4987015;28;20093;-88
2022/04/29 04:12:50;;;;;;;31.20;12.75;;;1.50;99.90;;;;;;4987243;28;20047;-88
2022/04/29 04:15:18;;;;;;;26.35;12.05;;;1.40;99.90;;;;;;4985589;28;20050;-88
2022/04/29 04:17:45;;;;;;;26.23;11.18;;;1.30;99.90;;;;;;4984070;28;20049;-88
2022/04/29 04:20:13;;;;;;;31.73;12.60;;;1.90;99.90;;;;;;5011904;28;20026;-86
2022/04/29 04:22:39;;;;;;;28.60;11.18;;;1.20;99.90;;;;;;5017427;28;20041;-85
2022/04/29 04:25:09;;;;;;;23.30;11.05;;;1.70;99.90;;;;;;5000669;28;20184;-85
2022/04/29 04:27:35;;;;;;;33.25;11.77;;;1.40;99.90;;;;;;5017637;28;20034;-86
2022/04/29 04:30:02;;;;;;;33.92;13.07;;;1.30;99.90;;;;;;5011421;28;20022;-87
2022/04/29 04:32:28;;;;;;;29.45;11.95;;;2.20;99.90;;;;;;4988731;28;20141;-88
2022/04/29 04:34:55;;;;;;;26.75;12.35;;;1.60;99.90;;;;;;5016353;28;20136;-87
2022/04/29 04:37:22;;;;;;;30.63;13.50;;;2.50;99.90;;;;;;4995371;28;20039;-88
2022/04/29 04:39:49;;;;;;;27.92;11.93;;;2.10;99.90;;;;;;4967481;28;20134;-88
2022/04/29 04:42:15;;;;;;;31.55;13.32;;;2.80;99.90;;;;;;4966868;28;20037;-87
2022/04/29 04:44:42;;;;;;;28.60;12.30;;;2.60;99.90;;;;;;4983347;28;20130;-88
2022/04/29 04:47:09;;;;;;;31.90;13.85;;;2.60;99.90;;;;;;4983325;28;20051;-88
2022/04/29 04:49:38;;;;;;;28.77;12.98;;;2.80;99.90;;;;;;4982336;28;20400;-88
2022/04/29 04:52:04;;;;;;;33.28;13.25;;;2.90;99.90;;;;;;4978349;28;20038;-88
2022/04/29 04:54:30;;;;;;;26.05;12.65;;;3.00;99.90;;;;;;5002774;28;20046;-89
2022/04/29 04:56:55;;;;;;;29.25;12.32;;;3.20;99.90;;;;;;4985891;28;20038;-89
2022/04/29 04:59:21;;;;;;;41.10;14.75;;;3.40;99.90;;;;;;4983162;28;20058;-89
2022/04/29 05:01:47;;;;;;;36.63;13.27;;;3.60;99.90;;;;;;4982818;28;20061;-88
2022/04/29 05:04:12;;;;;;;37.60;15.93;;;3.80;99.90;;;;;;4983046;28;20487;-88
2022/04/29 05:06:38;;;;;;;45.35;14.60;;;4.00;99.90;;;;;;5002523;28;20038;-88
2022/04/29 05:09:07;;;;;;;33.58;13.88;;;4.20;99.90;;;;;;4986196;28;20050;-89
2022/04/29 05:11:33;;;;;;;38.88;14.15;;;4.40;99.90;;;;;;4986518;28;20057;-87
2022/04/29 05:13:59;;;;;;;41.28;14.82;;;4.60;99.90;;;;;;5005069;28;20081;-88
2022/04/29 05:16:25;;;;;;;34.67;15.35;;;4.80;99.90;;;;;;4988778;28;20064;-86
2022/04/29 05:18:51;;;;;;;29.67;14.32;;;5.10;99.90;;;;;;5004757;28;20046;-86
2022/04/29 05:21:17;;;;;;;25.50;13.73;;;5.40;99.90;;;;;;5005499;28;20053;-87
2022/04/29 05:23:43;;;;;;;33.63;13.48;;;5.70;99.90;;;;;;4987404;28;20416;-87
2022/04/29 05:26:08;;;;;;;22.08;12.40;;;6.00;99.90;;;;;;5003016;28;20042;-86
2022/04/29 05:28:34;;;;;;;26.10;11.77;;;6.30;99.90;;;;;;5000007;28;20112;-86
2022/04/29 05:31:01;;;;;;;17.08;9.98;;;6.60;99.90;;;;;;5001363;28;20132;-85
2022/04/29 05:33:34;;;;;;;17.77;10.85;;;6.90;99.90;;;;;;4985607;28;20053;-87
2022/04/29 05:36:00;;;;;;;14.20;9.65;;;7.00;99.90;;;;;;4985769;28;20114;-87
2022/04/29 05:42:14;;;;;;;13.98;8.75;;;7.20;99.90;;;;;;5001662;28;20065;-86
2022/04/29 05:43:57;;;;;;;20.85;8.27;;;7.60;99.90;;;;;;5002300;28;20058;-87
2022/04/29 05:46:23;;;;;;;14.93;8.23;;;7.60;99.90;;;;;;5001785;28;20051;-86
2022/04/29 05:48:49;;;;;;;10.93;6.82;;;7.90;99.90;;;;;;5000731;28;20072;-86
2022/04/29 05:51:14;;;;;;;17.63;7.57;;;7.70;99.90;;;;;;5001035;28;20038;-88
2022/04/29 05:53:40;;;;;;;10.50;6.93;;;7.70;99.90;;;;;;4984582;28;20081;-87
2022/04/29 05:56:07;;;;;;;11.40;6.55;;;7.80;99.90;;;;;;4987677;28;20046;-86
2022/04/29 05:58:33;;;;;;;10.60;6.38;;;7.80;99.90;;;;;;4987803;28;20046;-86
2022/04/29 06:00:59;;;;;;;10.93;6.70;;;7.80;99.90;;;;;;5021826;28;20481;-86
2022/04/29 06:03:25;;;;;;;12.43;5.72;;;7.80;99.90;;;;;;4987615;28;20116;-86
2022/04/29 06:05:51;;;;;;;14.35;6.57;;;7.90;99.90;;;;;;4987134;28;20128;-86
2022/04/29 06:08:16;;;;;;;9.30;6.00;;;8.00;99.90;;;;;;5003976;28;20076;-86
2022/04/29 06:10:42;;;;;;;15.15;7.70;;;8.00;99.90;;;;;;4987644;28;20052;-86
2022/04/29 06:13:11;;;;;;;12.43;6.78;;;8.00;99.90;;;;;;4987953;28;20124;-87
2022/04/29 06:15:37;;;;;;;16.77;5.82;;;8.00;99.90;;;;;;5020207;28;20053;-86
2022/04/29 06:18:03;;;;;;;11.48;5.53;;;8.10;99.90;;;;;;5017956;28;20041;-87
2022/04/29 06:20:29;;;;;;;11.20;5.47;;;8.20;99.90;;;;;;5000080;28;20042;-87
2022/04/29 06:22:55;;;;;;;14.77;5.53;;;8.30;99.90;;;;;;4984162;28;20046;-87
2022/04/29 06:25:21;;;;;;;13.27;5.22;;;8.20;99.90;;;;;;4984910;28;20096;-86
2022/04/29 06:27:47;;;;;;;11.20;5.47;;;8.30;99.90;;;;;;4984840;28;20049;-87
2022/04/29 06:30:13;;;;;;;15.00;5.10;;;8.50;99.90;;;;;;5000490;28;20042;-87
2022/04/29 06:32:38;;;;;;;12.38;5.15;;;8.50;99.90;;;;;;5000408;28;20037;-86
2022/04/29 06:35:08;;;;;;;11.07;4.38;;;8.60;99.90;;;;;;4999905;28;20054;-87
2022/04/29 06:37:34;;;;;;;11.75;5.10;;;8.70;99.90;;;;;;5000600;28;20042;-87
2022/04/29 06:40:00;;;;;;;10.68;4.18;;;8.80;99.90;;;;;;4983321;28;20033;-86
2022/04/29 06:42:25;;;;;;;9.45;4.28;;;8.80;99.90;;;;;;5017416;28;20094;-86
2022/04/29 06:44:51;;;;;;;10.70;4.05;;;8.80;99.90;;;;;;4983981;28;20076;-87
2022/04/29 06:47:17;;;;;;;7.95;3.92;;;9.10;99.90;;;;;;5000422;28;20046;-87
2022/04/29 06:49:43;;;;;;;14.40;4.13;;;8.90;99.90;;;;;;5017761;28;20160;-87
2022/04/29 06:52:09;;;;;;;10.00;4.25;;;9.00;99.90;;;;;;5017731;28;20089;-87
2022/04/29 06:54:38;;;;;;;11.07;4.20;;;9.00;99.90;;;;;;4983694;28;20044;-86
2022/04/29 06:57:04;;;;;;;11.25;3.95;;;9.00;99.90;;;;;;4983481;28;20050;-87
2022/04/29 06:59:30;;;;;;;16.50;3.75;;;9.00;99.90;;;;;;4999553;28;20053;-87
2022/04/29 07:02:00;;;;;;;13.07;3.08;;;9.00;99.90;;;;;;4999862;28;20096;-87
2022/04/29 07:04:29;;;;;;;6.68;3.40;;;9.20;99.90;;;;;;4984048;28;20057;-87
2022/04/29 07:06:56;;;;;;;9.20;3.08;;;9.40;99.90;;;;;;4999558;28;20476;-87
2022/04/29 07:09:24;;;;;;;8.73;3.90;;;9.50;99.90;;;;;;4983414;28;20057;-86
2022/04/29 07:11:51;;;;;;;7.72;3.30;;;9.60;99.90;;;;;;4967338;28;20480;-87
2022/04/29 07:14:17;;;;;;;7.97;3.38;;;9.90;99.90;;;;;;4967470;28;20049;-87
2022/04/29 07:16:43;;;;;;;10.48;3.20;;;10.30;99.90;;;;;;4999554;28;20081;-87
2022/04/29 07:19:08;;;;;;;11.18;4.00;;;11.00;99.90;;;;;;4999648;28;20084;-86
2022/04/29 07:21:34;;;;;;;8.38;3.63;;;10.10;99.90;;;;;;4967247;28;20053;-86
2022/04/29 07:24:00;;;;;;;10.25;3.63;;;10.40;99.90;;;;;;4984064;28;20042;-87
2022/04/29 07:26:26;;;;;;;11.98;3.70;;;10.80;99.90;;;;;;4999873;28;20049;-87
2022/04/29 07:28:51;;;;;;;10.57;3.28;;;10.80;99.90;;;;;;4984680;28;20042;-87
2022/04/29 07:31:17;;;;;;;8.45;3.60;;;10.80;99.90;;;;;;5017999;28;20038;-87
2022/04/29 07:33:42;;;;;;;14.25;3.97;;;11.20;99.90;;;;;;4984081;28;20038;-87
2022/04/29 07:41:45;;;;;;;9.20;3.10;;;10.80;99.90;;;;;;5017332;28;20151;-87
2022/04/29 07:44:12;;;;;;;11.35;3.28;;;10.60;99.90;;;;;;4983189;28;20046;-88
2022/04/29 07:46:38;;;;;;;15.63;4.85;;;10.90;99.90;;;;;;5000589;28;20053;-87
2022/04/29 07:49:04;;;;;;;6.03;2.65;;;10.80;99.90;;;;;;5001685;28;20400;-88
2022/04/29 07:51:33;;;;;;;6.88;2.20;;;11.00;99.90;;;;;;4985522;28;20194;-87
2022/04/29 07:53:58;;;;;;;8.50;2.42;;;11.10;99.90;;;;;;4999712;28;20142;-87
2022/04/29 07:56:24;;;;;;;4.43;2.10;;;11.60;99.90;;;;;;5016925;28;20058;-88
2022/04/29 07:58:50;;;;;;;5.65;2.03;;;11.80;99.90;;;;;;4982960;28;20128;-87
2022/04/29 08:01:16;;;;;;;5.15;1.80;;;11.60;99.50;;;;;;4998262;28;20128;-87
2022/04/29 08:03:42;;;;;;;5.70;2.42;;;10.90;99.90;;;;;;4998911;28;20113;-87
2022/04/29 08:06:08;;;;;;;5.43;2.17;;;11.00;99.90;;;;;;4983059;28;20512;-87
2022/04/29 08:08:35;;;;;;;6.63;2.45;;;11.00;99.90;;;;;;4998515;28;20057;-87
2022/04/29 08:11:01;;;;;;;5.95;2.22;;;11.20;99.90;;;;;;4998642;28;20076;-87
2022/04/29 08:13:28;;;;;;;6.00;2.20;;;11.30;99.90;;;;;;4998674;28;20057;-87
2022/04/29 08:15:53;;;;;;;6.00;2.03;;;11.60;99.50;;;;;;4998811;28;20041;-87
2022/04/29 08:18:20;;;;;;;9.77;1.83;;;11.50;97.70;;;;;;5017085;28;20178;-87
2022/04/29 08:20:46;;;;;;;6.30;1.90;;;11.20;97.90;;;;;;4982390;28;20057;-86
2022/04/29 08:23:11;;;;;;;8.75;2.05;;;11.10;99.90;;;;;;4982873;28;20042;-86
2022/04/29 08:25:37;;;;;;;6.80;2.30;;;11.00;98.50;;;;;;4982682;28;20045;-87
2022/04/29 08:28:04;;;;;;;5.55;1.80;;;11.30;99.90;;;;;;4982178;28;20050;-87
2022/04/29 08:30:30;;;;;;;4.13;1.75;;;10.90;98.30;;;;;;4982573;28;20050;-87
2022/04/29 08:32:57;;;;;;;17.33;3.03;;;11.20;99.40;;;;;;4981106;28;20107;-86
2022/04/29 08:35:24;;;;;;;5.47;1.90;;;11.40;99.10;;;;;;4983535;28;20078;-88
2022/04/29 08:37:50;;;;;;;8.55;2.10;;;11.40;97.20;;;;;;4999702;28;20045;-89
2022/04/29 08:40:16;;;;;;;5.18;2.00;;;11.20;98.10;;;;;;4999694;28;20046;-88
2022/04/29 08:42:42;;;;;;;5.80;2.00;;;11.20;98.60;;;;;;4983798;28;20046;-88
2022/04/29 08:45:16;;;;;;;7.70;3.20;;;11.10;98.70;;;;;;4983486;28;20092;-87
2022/04/29 08:47:45;;;;;;;5.68;2.00;;;11.20;99.90;;;;;;4982444;28;20050;-87
2022/04/29 08:50:18;;;;;;;6.35;1.80;;;11.20;98.60;;;;;;4999491;28;20050;-88
2022/04/29 08:52:44;;;;;;;6.25;1.92;;;11.10;99.90;;;;;;4966772;28;20129;-88
2022/04/29 09:00:44;;;;;;;11.43;2.25;;;11.20;97.40;;;;;;4984997;28;20447;-88
2022/04/29 09:03:14;;;;;;;4.18;1.45;;;11.40;99.90;;;;;;4982920;28;20038;-87
2022/04/29 09:05:41;;;;;;;7.43;1.85;;;11.90;95.50;;;;;;4998947;28;20046;-88
2022/04/29 09:08:07;;;;;;;5.45;1.23;;;11.60;97.10;;;;;;4998697;28;20050;-88
2022/04/29 09:10:34;;;;;;;2.72;1.60;;;11.80;96.50;;;;;;4982407;28;20042;-87
2022/04/29 09:13:14;;;;;;;9.73;1.55;;;11.80;96.60;;;;;;4999336;28;20460;-87
2022/04/29 09:15:49;;;;;;;4.30;1.55;;;11.80;98.10;;;;;;4982526;28;20046;-88
2022/04/29 09:18:32;;;;;;;3.95;1.70;;;11.70;95.20;;;;;;5016503;28;20354;-88
2022/04/29 09:20:59;;;;;;;5.15;1.35;;;11.90;97.60;;;;;;4982659;28;20077;-88
2022/04/29 09:23:29;;;;;;;6.13;1.73;;;11.80;97.70;;;;;;5019330;28;20064;-88
2022/04/29 09:25:57;;;;;;;5.78;2.17;;;11.70;99.60;;;;;;5002810;28;20045;-88
2022/04/29 09:28:24;;;;;;;6.32;2.58;;;12.00;99.90;;;;;;5002410;28;20046;-88
2022/04/29 09:30:55;;;;;;;9.85;1.92;;;11.40;99.90;;;;;;5002288;28;20089;-88
2022/04/29 09:33:23;;;;;;;3.67;1.52;;;11.20;99.90;;;;;;5003574;28;20493;-91
2022/04/29 09:35:49;;;;;;;15.18;2.60;;;11.20;99.90;;;;;;5021385;28;20042;-89
2022/04/29 09:41:01;;;;;;;9.10;1.67;;;11.10;99.90;;;;;;5019269;28;20120;-88
2022/04/29 09:43:36;;;;;;;5.95;2.00;;;11.00;99.90;;;;;;4985770;28;20046;-89
2022/04/29 09:46:09;;;;;;;6.32;2.50;;;11.20;99.90;;;;;;4969418;28;20042;-89
2022/04/29 09:48:54;;;;;;;8.07;2.20;;;11.20;99.90;;;;;;4986555;28;20045;-88
2022/04/29 09:51:41;;;;;;;6.68;2.75;;;11.30;99.90;;;;;;4985709;28;20512;-89
2022/04/29 09:54:11;;;;;;;11.82;3.00;;;11.50;99.90;;;;;;4986106;28;20064;-89
2022/04/29 09:56:38;;;;;;;7.30;2.80;;;11.70;99.90;;;;;;4982015;28;20058;-88
2022/04/29 09:59:08;;;;;;;70.80;9.35;;;11.40;99.90;;;;;;4998331;28;20047;-89
2022/04/29 10:01:34;;;;;;;9.15;2.50;;;11.50;99.90;;;;;;4982075;28;20100;-88
2022/04/29 10:04:00;;;;;;;3.92;1.80;;;11.70;99.90;;;;;;4999657;28;20129;-90
2022/04/29 10:06:28;;;;;;;4.20;2.13;;;12.00;96.00;;;;;;4982956;28;20041;-89
2022/04/29 10:08:56;;;;;;;4.22;1.92;;;12.20;95.70;;;;;;4983492;28;20045;-90
2022/04/29 10:11:23;;;;;;;4.82;1.80;;;12.00;95.20;;;;;;4983109;28;20046;-89
2022/04/29 10:13:51;;;;;;;3.42;1.55;;;12.00;93.00;;;;;;4966736;28;20058;-88
2022/04/29 10:16:18;;;;;;;4.63;2.17;;;11.80;93.80;;;;;;4998385;28;20045;-89
2022/04/29 10:21:47;;;;;;;10.63;2.78;;;11.70;95.80;;;;;;4997501;28;20156;-88
2022/04/29 10:24:12;;;;;;;9.32;3.00;;;12.00;95.30;;;;;;4981514;28;20393;-88
2022/04/29 10:26:39;;;;;;;9.63;3.65;;;11.80;96.00;;;;;;4982811;28;20058;-89
2022/04/29 10:29:06;;;;;;;6.35;2.38;;;11.60;96.50;;;;;;4983137;28;20046;-90
2022/04/29 10:31:32;;;;;;;7.43;2.33;;;11.80;94.20;;;;;;4985591;28;20116;-88
2022/04/29 10:34:25;;;;;;;10.43;2.55;;;12.20;95.30;;;;;;5005265;28;20054;-88
2022/04/29 10:36:51;;;;;;;7.53;3.22;;;11.70;95.30;;;;;;4992229;28;20417;-88
2022/04/29 10:39:21;;;;;;;7.50;2.97;;;11.70;94.80;;;;;;4994154;28;20165;-88
2022/04/29 10:42:04;;;;;;;6.55;2.85;;;11.80;95.30;;;;;;5020819;28;20108;-88
2022/04/29 10:44:31;;;;;;;6.30;2.65;;;11.60;92.30;;;;;;4987076;28;20042;-88
2022/04/29 10:47:16;;;;;;;6.90;2.70;;;12.30;92.90;;;;;;4983724;28;20070;-87
2022/04/29 10:49:42;;;;;;;8.53;2.77;;;11.50;94.10;;;;;;4985501;28;20102;-87
2022/04/29 10:52:27;;;;;;;8.77;2.92;;;12.10;94.60;;;;;;4969968;28;20074;-88
2022/04/29 10:54:58;;;;;;;7.13;3.63;;;11.70;94.50;;;;;;4989760;28;20039;-87
2022/04/29 10:57:44;;;;;;;6.68;3.15;;;11.50;95.20;;;;;;4984552;28;20065;-88
2022/04/29 11:00:13;;;;;;;6.30;3.22;;;11.50;94.50;;;;;;4980770;28;20065;-88
2022/04/29 11:02:39;;;;;;;6.68;4.30;;;11.40;95.40;;;;;;4968292;28;20058;-89
2022/04/29 11:05:08;;;;;;;6.97;3.40;;;11.90;95.00;;;;;;4980033;28;20055;-88
2022/04/29 11:07:46;;;;;;;5.03;3.08;;;11.30;95.20;;;;;;4962420;28;20136;-88
2022/04/29 11:10:18;;;;;;;6.03;3.45;;;11.10;96.80;;;;;;4979018;28;20061;-89
2022/04/29 11:13:03;;;;;;;9.43;3.40;;;11.70;97.20;;;;;;4978278;28;20046;-88
2022/04/29 11:15:43;;;;;;;8.77;3.50;;;11.20;97.80;;;;;;4947040;28;20082;-88
2022/04/29 11:18:22;;;;;;;6.97;3.75;;;11.40;98.30;;;;;;4962003;28;20466;-88
2022/04/29 11:20:52;;;;;;;7.03;3.42;;;11.30;97.60;;;;;;4961901;28;20058;-88
2022/04/29 11:26:17;;;;;;;8.13;2.92;;;11.80;96.10;;;;;;4979139;28;20055;-88
2022/04/29 11:28:43;;;;;;;6.32;2.72;;;11.20;96.00;;;;;;4961716;28;20039;-88
2022/04/29 11:31:11;;;;;;;8.55;3.00;;;11.90;95.60;;;;;;4977726;28;20046;-88
2022/04/29 11:33:38;;;;;;;4.25;2.20;;;11.30;95.70;;;;;;4945483;28;20067;-88
2022/04/29 11:36:12;;;;;;;8.68;2.60;;;11.20;95.00;;;;;;4961349;28;20046;-88
2022/04/29 11:38:43;;;;;;;9.50;2.92;;;11.20;93.80;;;;;;4961741;28;20058;-88
2022/04/29 11:41:24;;;;;;;7.03;2.38;;;11.10;96.00;;;;;;4961232;28;20039;-88
2022/04/29 11:43:51;;;;;;;2.50;1.60;;;11.20;95.20;;;;;;4961926;28;20540;-89
2022/04/29 11:46:18;;;;;;;8.77;3.47;;;11.30;96.30;;;;;;4960814;28;20079;-88
2022/04/29 11:48:56;;;;;;;5.93;2.67;;;11.60;95.10;;;;;;4978796;28;20051;-88
2022/04/29 11:51:22;;;;;;;6.75;2.80;;;11.40;93.20;;;;;;4961990;28;20059;-88
2022/04/29 11:53:58;;;;;;;6.40;2.50;;;11.60;95.30;;;;;;4961938;28;20406;-88
2022/04/29 11:56:32;;;;;;;5.38;2.42;;;12.10;94.60;;;;;;4977664;28;20129;-87
2022/04/29 11:58:58;;;;;;;6.63;2.80;;;11.60;91.70;;;;;;4961436;28;20116;-88
2022/04/29 12:01:27;;;;;;;6.35;3.22;;;11.50;92.40;;;;;;4977546;28;20054;-88
2022/04/29 12:03:53;;;;;;;9.02;2.40;;;11.50;90.60;;;;;;4977393;28;20046;-88
2022/04/29 12:06:21;;;;;;;7.78;2.30;;;11.40;90.60;;;;;;4977509;28;20137;-88
2022/04/29 12:08:47;;;;;;;7.20;2.50;;;11.40;91.20;;;;;;4977451;28;20144;-87
2022/04/29 12:11:23;;;;;;;8.38;2.90;;;11.60;89.20;;;;;;4993356;28;20130;-88
2022/04/29 12:13:49;;;;;;;10.30;2.38;;;12.20;84.10;;;;;;4977242;28;20103;-89
2022/04/29 12:16:15;;;;;;;5.38;2.35;;;12.10;84.60;;;;;;4977035;28;20050;-88
2022/04/29 12:18:46;;;;;;;6.05;2.58;;;12.20;81.50;;;;;;4945147;28;20112;-88
2022/04/29 12:21:24;;;;;;;7.53;3.05;;;12.20;78.90;;;;;;4977569;28;20045;-88
2022/04/29 12:23:51;;;;;;;10.07;2.35;;;12.20;76.20;;;;;;4960622;28;20050;-88
2022/04/29 12:26:16;;;;;;;6.93;2.20;;;12.20;76.70;;;;;;4961345;28;20039;-89
2022/04/29 12:28:42;;;;;;;5.60;2.17;;;12.70;76.70;;;;;;4977188;28;20129;-89
2022/04/29 12:36:48;;;;;;;5.57;1.88;;;11.80;80.00;;;;;;4977463;28;19929;-88
2022/04/29 12:39:16;;;;;;;6.03;2.08;;;11.80;80.00;;;;;;4977100;28;20382;-88
2022/04/29 12:41:42;;;;;;;9.32;3.30;;;11.80;82.80;;;;;;4964228;28;20047;-87
2022/04/29 12:45:04;;;;;;;7.22;2.60;;;11.80;81.80;;;;;;4977882;28;20082;-88
2022/04/29 12:47:19;;;;;;;6.30;2.50;;;12.20;86.50;;;;;;4978459;28;20050;-88
2022/04/29 12:49:45;;;;;;;10.80;2.17;;;11.90;83.60;;;;;;4960670;28;20476;-89
2022/04/29 12:52:12;;;;;;;7.03;3.10;;;11.70;80.00;;;;;;4960330;28;20039;-88
2022/04/29 12:54:38;;;;;;;8.07;3.15;;;11.90;80.60;;;;;;4960665;28;20050;-87
2022/04/29 12:57:05;;;;;;;7.15;2.33;;;12.50;84.40;;;;;;4962600;28;20051;-89
2022/04/29 12:59:37;;;;;;;7.38;2.13;;;12.50;75.50;;;;;;4964800;28;20082;-89
2022/04/29 13:02:09;;;;;;;5.93;3.03;;;13.00;69.80;;;;;;4964622;28;20478;-89
2022/04/29 13:04:34;;;;;;;5.68;2.20;;;12.70;68.40;;;;;;4964827;28;20051;-88
2022/04/29 13:07:03;;;;;;;5.38;2.20;;;13.20;67.00;;;;;;4949410;28;20046;-88
2022/04/29 13:09:30;;;;;;;7.85;2.20;;;13.30;67.80;;;;;;4949007;28;20106;-88
2022/04/29 13:11:55;;;;;;;8.48;2.22;;;13.00;61.80;;;;;;4980712;28;20054;-89
2022/04/29 13:14:21;;;;;;;12.93;2.67;;;13.20;64.00;;;;;;4980365;28;20058;-88
2022/04/29 13:16:47;;;;;;;6.68;1.92;;;12.50;67.90;;;;;;4980409;28;20125;-88